Time;durP1;ratioP1;P1;durP2;ratioP2;P2;SDS_P1;SDS_P2;PMS_P1;PMS_P2;Temp;Humidity;BMP_temperature;BMP_pressure;BME280_temperature;BME280_humidity;BME280_pressure;Samples;Min_cycle;Max_cycle;Signal;HPM_P1;HPM_P2
2021/08/21 00:01:10;;;;;;;2.35;1.45;;;;;;;15.36;72.64;99532.17;1698934;82;21140;-54
2021/08/21 00:03:39;;;;;;;1.45;1.30;;;;;;;15.33;72.64;99537.80;1700473;81;20969;-55
2021/08/21 00:06:06;;;;;;;8.40;1.30;;;;;;;15.33;72.64;99537.80;1702228;81;21239;-54
2021/08/21 00:08:33;;;;;;;1.95;1.70;;;;;;;15.32;72.77;99533.35;1701407;81;21560;-54
2021/08/21 00:11:01;;;;;;;7.33;1.20;;;;;;;15.30;72.70;99537.55;1706776;81;20994;-54
2021/08/21 00:13:27;;;;;;;3.92;1.30;;;;;;;15.29;72.68;99542.59;1700965;81;21099;-55
2021/08/21 00:15:53;;;;;;;3.62;1.30;;;;;;;15.27;72.65;99540.95;1696483;81;21025;-54
2021/08/21 00:18:21;;;;;;;2.10;1.07;;;;;;;15.28;72.71;99545.41;1709138;81;21072;-54
2021/08/21 00:20:49;;;;;;;2.15;1.52;;;;;;;15.26;72.74;99536.02;1689335;82;21408;-54
2021/08/21 00:23:16;;;;;;;3.72;1.90;;;;;;;15.25;72.74;99540.19;1700134;82;21529;-54
2021/08/21 00:25:43;;;;;;;7.37;1.92;;;;;;;15.21;72.67;99540.91;1698302;82;21504;-54
2021/08/21 00:28:09;;;;;;;9.70;1.62;;;;;;;15.19;72.67;99543.34;1705573;82;21116;-54
2021/08/21 00:30:36;;;;;;;2.87;1.52;;;;;;;15.14;72.73;99539.61;1702542;82;21077;-54
2021/08/21 00:33:04;;;;;;;3.72;1.77;;;;;;;15.11;72.72;99535.27;1684979;82;21152;-54
2021/08/21 00:35:30;;;;;;;1.42;1.12;;;;;;;15.10;72.77;99536.23;1687776;83;20966;-54
2021/08/21 00:37:57;;;;;;;1.98;1.42;;;;;;;15.10;72.53;99537.59;1687594;84;21763;-54
2021/08/21 00:40:23;;;;;;;5.78;1.25;;;;;;;15.10;72.53;99537.59;1688236;84;21452;-53
2021/08/21 00:42:51;;;;;;;1.45;1.20;;;;;;;15.11;72.95;99538.47;1678952;83;20914;-54
2021/08/21 00:45:19;;;;;;;3.83;1.50;;;;;;;15.11;72.95;99535.75;1670488;83;20954;-54
2021/08/21 00:47:45;;;;;;;3.05;1.65;;;;;;;15.10;72.96;99537.59;1670680;83;20950;-53
2021/08/21 00:50:11;;;;;;;1.55;1.45;;;;;;;15.09;72.96;99529.56;1674295;84;21428;-54
2021/08/21 00:52:38;;;;;;;1.75;1.65;;;;;;;15.08;72.95;99531.89;1676512;83;20891;-54
2021/08/21 00:55:08;;;;;;;3.85;2.05;;;;;;;15.07;72.93;99530.15;1674771;84;21413;-54
2021/08/21 00:57:34;;;;;;;4.10;1.75;;;;;;;15.03;72.79;99528.16;1676006;84;20911;-54
2021/08/21 01:00:01;;;;;;;1.90;1.67;;;;;;;15.01;72.89;99524.69;1674506;83;20962;-54
2021/08/21 01:02:29;;;;;;;3.58;1.70;;;;;;;15.00;73.06;99524.78;1673746;84;21099;-54
2021/08/21 01:04:57;;;;;;;2.00;1.02;;;;;;;14.94;73.28;99516.61;1673532;84;21636;-54
2021/08/21 01:07:31;;;;;;;2.60;1.70;;;;;;;14.94;73.28;99516.61;1670463;83;21054;-54
2021/08/21 01:10:13;;;;;;;1.65;1.45;;;;;;;14.98;73.41;99519.95;1672255;84;20955;-54
2021/08/21 01:12:46;;;;;;;4.85;1.98;;;;;;;15.00;73.64;99521.59;1674185;84;21583;-54
2021/08/21 01:15:12;;;;;;;4.65;2.17;;;;;;;15.00;73.64;99521.59;1666911;84;21093;-53
2021/08/21 01:17:42;;;;;;;8.03;2.17;;;;;;;15.01;73.57;99521.97;1670265;84;21061;-54
2021/08/21 01:20:10;;;;;;;2.60;2.40;;;;;;;15.00;73.56;99520.23;1670721;84;21136;-53
2021/08/21 01:22:40;;;;;;;4.80;1.52;;;;;;;14.99;73.56;99519.84;1667655;83;21440;-54
2021/08/21 01:25:12;;;;;;;1.80;1.70;;;;;;;15.00;73.66;99521.59;1667408;84;21085;-54
2021/08/21 01:27:38;;;;;;;3.70;1.72;;;;;;;14.99;73.53;99521.20;1671960;83;21145;-54
2021/08/21 01:30:12;;;;;;;2.83;1.45;;;;;;;14.99;73.53;99521.20;1653276;84;20943;-53
2021/08/21 01:32:40;;;;;;;3.40;1.40;;;;;;;15.01;73.60;99529.23;1669139;84;21085;-54
2021/08/21 01:35:08;;;;;;;2.90;1.92;;;;;;;14.99;73.65;99525.27;1668239;84;21057;-52
2021/08/21 01:37:35;;;;;;;4.30;1.92;;;;;;;14.99;73.62;99521.20;1670337;83;21260;-52
2021/08/21 01:40:21;;;;;;;2.17;1.62;;;;;;;15.01;73.52;99527.39;1673958;84;21673;-52
2021/08/21 01:42:47;;;;;;;2.02;1.60;;;;;;;15.00;73.36;99525.66;1641213;84;21483;-53
2021/08/21 01:45:14;;;;;;;3.42;2.22;;;;;;;14.99;73.26;99525.27;1668588;83;21121;-53
2021/08/21 01:47:43;;;;;;;2.50;1.25;;;;;;;14.96;73.19;99521.92;1672169;84;21121;-52
2021/08/21 01:50:17;;;;;;;3.35;1.47;;;;;;;14.92;73.11;99519.91;1671641;84;21114;-54
2021/08/21 01:52:41;;;;;;;2.22;1.30;;;;;;;14.87;73.05;99523.44;1673677;84;21464;-54
2021/08/21 01:55:11;;;;;;;3.77;1.62;;;;;;;14.87;73.05;99523.44;1668224;84;21324;-53
2021/08/21 01:57:42;;;;;;;13.03;2.20;;;;;;;14.87;73.01;99530.69;1673859;84;21077;-51
2021/08/21 02:00:14;;;;;;;2.33;1.50;;;;;;;14.86;72.99;99528.95;1646895;84;21077;-54
2021/08/21 02:02:41;;;;;;;2.98;1.82;;;;;;;14.83;72.94;99521.89;1670260;84;21468;-53
2021/08/21 02:05:25;;;;;;;2.08;1.85;;;;;;;14.81;72.95;99525.19;1673556;83;21879;-54
2021/08/21 02:07:52;;;;;;;3.55;2.10;;;;;;;14.78;73.02;99521.36;1671993;84;20983;-53
2021/08/21 02:10:19;;;;;;;2.08;1.87;;;;;;;14.76;73.12;99524.65;1671995;84;21137;-54
2021/08/21 02:12:48;;;;;;;2.98;1.50;;;;;;;14.73;73.06;99520.79;1670526;83;21263;-52
2021/08/21 02:15:16;;;;;;;3.15;1.40;;;;;;;14.72;73.02;99522.63;1645941;83;21694;-53
2021/08/21 02:17:46;;;;;;;2.22;1.05;;;;;;;14.67;72.91;99515.31;1671946;84;20942;-53
2021/08/21 02:20:15;;;;;;;2.45;1.92;;;;;;;14.67;73.11;99523.92;1673528;84;20926;-52
2021/08/21 02:22:43;;;;;;;3.67;1.72;;;;;;;14.65;73.27;99521.31;1669209;83;20938;-54
2021/08/21 02:25:12;;;;;;;1.65;1.55;;;;;;;14.64;73.54;99526.34;1676570;84;20950;-53
2021/08/21 02:27:54;;;;;;;16.65;2.92;;;;;;;14.65;73.44;99528.58;1671671;84;20998;-54
2021/08/21 02:30:07;;;;;;;2.42;2.25;;;;;;;14.65;73.51;99528.58;1666784;83;21149;-53
2021/08/21 02:32:34;;;;;;;2.45;1.30;;;;;;;14.63;73.48;99523.77;1671818;84;21069;-52
2021/08/21 02:35:00;;;;;;;4.30;1.85;;;;;;;14.61;73.42;99531.13;1672813;83;21089;-52
2021/08/21 02:37:27;;;;;;;1.62;1.42;;;;;;;14.60;73.41;99526.20;1672965;84;21519;-52
2021/08/21 02:39:56;;;;;;;3.20;1.62;;;;;;;14.59;73.43;99525.81;1673231;83;21521;-51
2021/08/21 02:42:22;;;;;;;4.15;1.70;;;;;;;14.58;73.85;99525.91;1667466;83;21121;-53
2021/08/21 02:44:49;;;;;;;2.42;1.40;;;;;;;14.59;73.61;99524.94;1675594;83;21082;-55
2021/08/21 02:47:15;;;;;;;1.90;1.80;;;;;;;14.59;73.61;99524.94;1661642;85;21667;-52
2021/08/21 02:49:42;;;;;;;2.05;1.90;;;;;;;14.60;73.69;99526.68;1687231;83;21076;-52
2021/08/21 02:52:09;;;;;;;4.92;1.52;;;;;;;14.57;73.60;99528.23;1678348;84;21141;-54
2021/08/21 02:54:36;;;;;;;3.08;2.08;;;;;;;14.55;73.48;99528.33;1643289;84;21100;-52
2021/08/21 02:57:04;;;;;;;2.30;2.10;;;;;;;14.52;73.42;99524.98;1675607;83;21129;-52
2021/08/21 02:59:32;;;;;;;1.77;1.67;;;;;;;14.49;73.55;99526.53;1657248;85;21580;-53
2021/08/21 03:01:59;;;;;;;1.92;1.40;;;;;;;14.46;73.95;99522.18;1663006;83;21151;-53
2021/08/21 03:04:25;;;;;;;2.15;1.50;;;;;;;14.46;73.95;99522.18;1668192;83;21049;-52
2021/08/21 03:06:52;;;;;;;2.75;1.55;;;;;;;14.45;74.10;99521.83;1673453;84;21130;-53
2021/08/21 03:09:21;;;;;;;1.77;1.60;;;;;;;14.45;74.12;99520.95;1687709;83;21393;-52
2021/08/21 03:11:49;;;;;;;2.47;2.35;;;;;;;14.46;74.05;99525.41;1669497;83;21076;-53
2021/08/21 03:14:17;;;;;;;4.22;2.02;;;;;;;14.45;74.03;99520.95;1681807;83;21096;-53
2021/08/21 03:16:43;;;;;;;2.27;1.70;;;;;;;14.43;74.07;99528.30;1677914;84;21105;-54
2021/08/21 03:19:10;;;;;;;2.40;2.20;;;;;;;14.43;74.07;99528.30;1685886;82;21116;-51
2021/08/21 03:21:37;;;;;;;2.80;2.62;;;;;;;14.39;74.12;99527.63;1682103;83;21164;-53
2021/08/21 03:24:06;;;;;;;4.12;2.50;;;;;;;14.40;73.94;99529.37;1676405;84;21089;-54
2021/08/21 03:26:32;;;;;;;3.37;1.80;;;;;;;14.39;74.08;99529.86;1642513;85;22448;-52
2021/08/21 03:28:59;;;;;;;3.15;1.95;;;;;;;14.39;74.28;99533.92;1657304;85;22579;-52
2021/08/21 03:31:28;;;;;;;2.60;1.52;;;;;;;14.41;74.46;99533.82;1672650;84;22327;-53
2021/08/21 03:33:54;;;;;;;3.20;2.08;;;;;;;14.44;74.53;99536.81;1659474;85;21097;-53
2021/08/21 03:36:22;;;;;;;5.37;2.33;;;;;;;14.46;74.77;99533.02;1661058;83;21077;-54
2021/08/21 03:38:49;;;;;;;3.77;2.77;;;;;;;14.48;74.59;99531.56;1676336;84;21117;-52
2021/08/21 03:41:18;;;;;;;2.65;2.17;;;;;;;14.47;74.75;99527.11;1662189;85;21374;-54
2021/08/21 03:43:46;;;;;;;4.53;2.40;;;;;;;14.47;74.75;99527.11;1687091;83;21243;-54
2021/08/21 03:46:13;;;;;;;3.72;2.30;;;;;;;14.50;75.04;99539.10;1695384;83;20921;-54
2021/08/21 03:48:41;;;;;;;1.70;1.60;;;;;;;14.50;75.04;99539.10;1666909;84;20949;-54
2021/08/21 03:51:07;;;;;;;6.97;1.62;;;;;;;14.55;75.18;99543.22;1685755;82;20994;-52
2021/08/21 03:53:35;;;;;;;2.02;1.60;;;;;;;14.58;75.28;99541.67;1676570;84;21006;-53
2021/08/21 03:56:06;;;;;;;4.70;1.75;;;;;;;14.63;75.45;99541.38;1676094;84;21098;-53
2021/08/21 03:58:34;;;;;;;2.60;2.02;;;;;;;14.67;75.59;99540.18;1671912;83;20974;-52
2021/08/21 04:01:00;;;;;;;2.02;1.85;;;;;;;14.74;75.69;99541.48;1673944;84;20922;-52
2021/08/21 04:03:27;;;;;;;2.15;1.95;;;;;;;14.85;75.87;99542.98;1674106;84;21105;-53
2021/08/21 04:05:54;;;;;;;1.70;1.60;;;;;;;14.85;75.87;99542.98;1676173;84;20978;-54
2021/08/21 04:08:22;;;;;;;3.77;2.98;;;;;;;14.91;75.98;99549.81;1678930;84;20993;-53
2021/08/21 04:10:50;;;;;;;2.25;2.05;;;;;;;15.00;76.14;99547.34;1673003;84;20986;-53
2021/08/21 04:13:17;;;;;;;2.75;2.22;;;;;;;15.19;76.20;99550.13;1674894;83;20927;-53
2021/08/21 04:15:43;;;;;;;2.67;2.45;;;;;;;15.43;76.07;99551.97;1676551;84;21027;-53
2021/08/21 04:18:10;;;;;;;4.40;2.15;;;;;;;15.68;75.67;99552.45;1669398;84;21836;-52
2021/08/21 04:20:37;;;;;;;2.92;2.37;;;;;;;15.93;75.17;99549.31;1674317;84;21593;-53
2021/08/21 04:23:04;;;;;;;3.17;2.87;;;;;;;16.11;74.56;99552.03;1675809;84;20915;-52
2021/08/21 04:25:31;;;;;;;3.92;2.92;;;;;;;16.22;74.09;99547.55;1658916;84;21687;-54
2021/08/21 04:27:59;;;;;;;4.75;3.05;;;;;;;16.33;73.57;99550.83;1670760;83;21647;-55
2021/08/21 04:30:26;;;;;;;3.35;3.05;;;;;;;16.38;73.20;99552.70;1645216;84;21072;-52
2021/08/21 04:32:52;;;;;;;3.52;3.08;;;;;;;16.43;72.92;99551.84;1672557;84;21148;-52
2021/08/21 04:35:20;;;;;;;3.35;2.75;;;;;;;16.47;72.77;99538.42;1673281;84;21129;-53
2021/08/21 04:37:47;;;;;;;4.10;2.92;;;;;;;16.52;72.60;99543.00;1670372;84;21085;-54
2021/08/21 04:40:14;;;;;;;17.05;7.70;;;;;;;16.61;72.54;99552.34;1670327;84;21136;-53
2021/08/21 04:42:41;;;;;;;4.53;2.90;;;;;;;16.68;72.75;99547.30;1677523;84;22171;-55
2021/08/21 04:45:09;;;;;;;4.65;3.33;;;;;;;16.77;73.97;99545.23;1668937;83;21145;-52
2021/08/21 04:47:36;;;;;;;3.90;1.50;;;;;;;16.82;73.96;99551.20;1663236;84;21573;-52
2021/08/21 04:50:04;;;;;;;2.17;1.67;;;;;;;16.86;73.36;99547.24;1660602;85;21054;-52
2021/08/21 04:52:31;;;;;;;2.90;2.30;;;;;;;16.88;73.16;99546.15;1664351;85;21087;-52
2021/08/21 04:55:00;;;;;;;2.75;2.25;;;;;;;16.94;73.09;99555.67;1636516;85;21113;-54
2021/08/21 04:57:26;;;;;;;3.87;2.50;;;;;;;16.96;72.94;99549.14;1661198;85;22434;-53
2021/08/21 04:59:53;;;;;;;2.70;2.50;;;;;;;17.02;72.93;99551.37;1675753;84;21329;-52
2021/08/21 05:02:19;;;;;;;1.92;1.82;;;;;;;17.07;72.63;99549.67;1665902;83;21490;-54
2021/08/21 05:04:46;;;;;;;2.20;2.00;;;;;;;17.11;72.49;99544.34;1653795;84;21380;-53
2021/08/21 05:07:12;;;;;;;2.75;1.35;;;;;;;17.18;72.36;99549.67;1659519;84;21256;-53
2021/08/21 05:09:40;;;;;;;1.95;1.57;;;;;;;17.24;72.23;99551.94;1684073;83;21147;-53
2021/08/21 05:12:09;;;;;;;3.05;1.50;;;;;;;17.32;72.10;99547.25;1674182;83;22319;-53
2021/08/21 05:14:39;;;;;;;2.58;1.57;;;;;;;17.39;71.90;99554.80;1671946;84;21498;-53
2021/08/21 05:17:08;;;;;;;1.90;1.60;;;;;;;17.48;71.64;99549.61;1684701;83;21133;-54
2021/08/21 05:19:54;;;;;;;2.72;1.62;;;;;;;17.57;71.32;99551.60;1677643;83;21116;-53
2021/08/21 05:22:27;;;;;;;2.15;1.95;;;;;;;17.66;71.15;99552.26;1637775;85;21157;-52
2021/08/21 05:24:53;;;;;;;2.72;1.72;;;;;;;17.73;70.73;99558.94;1698555;83;21096;-54
2021/08/21 05:27:22;;;;;;;4.20;1.80;;;;;;;17.81;70.50;99556.45;1675935;84;21108;-53
2021/08/21 05:29:49;;;;;;;1.57;0.90;;;;;;;17.89;70.29;99552.62;1681658;83;21657;-51
2021/08/21 05:32:16;;;;;;;4.72;1.30;;;;;;;17.98;70.01;99553.72;1675706;84;21149;-52
2021/08/21 05:34:42;;;;;;;2.55;1.37;;;;;;;18.07;69.97;99552.97;1669509;83;21106;-53
2021/08/21 05:37:10;;;;;;;1.30;1.20;;;;;;;18.16;69.78;99554.94;1678531;83;21104;-52
2021/08/21 05:39:38;;;;;;;2.02;1.40;;;;;;;18.27;69.75;99551.34;1687994;83;21564;-50
2021/08/21 05:42:04;;;;;;;3.77;1.22;;;;;;;18.37;69.29;99556.39;1675478;83;21473;-52
2021/08/21 05:44:31;;;;;;;3.25;1.65;;;;;;;18.47;68.97;99558.69;1659269;84;21089;-53
2021/08/21 05:46:59;;;;;;;1.80;1.07;;;;;;;18.56;68.30;99553.84;1676434;83;21146;-52
2021/08/21 05:49:25;;;;;;;1.30;1.20;;;;;;;18.67;67.92;99551.61;1708278;82;21042;-53
2021/08/21 05:51:52;;;;;;;3.05;1.10;;;;;;;18.75;67.20;99546.37;1708082;82;21089;-53
2021/08/21 05:54:20;;;;;;;1.62;1.22;;;;;;;18.82;66.80;99554.39;1654834;84;21006;-53
2021/08/21 05:56:47;;;;;;;2.25;1.22;;;;;;;18.90;66.44;99549.14;1711153;82;21399;-54
2021/08/21 05:59:13;;;;;;;4.92;1.05;;;;;;;18.98;65.36;99552.08;1709735;81;21134;-53
2021/08/21 06:01:40;;;;;;;1.50;1.15;;;;;;;19.02;65.30;99550.83;1711530;82;21096;-52
2021/08/21 06:04:06;;;;;;;2.72;1.37;;;;;;;19.09;65.00;99560.70;1711167;81;21106;-51
2021/08/21 06:06:34;;;;;;;1.35;1.20;;;;;;;19.13;64.54;99552.64;1707837;82;21066;-53
2021/08/21 06:09:03;;;;;;;3.65;1.20;;;;;;;19.18;64.17;99551.73;1708521;82;20971;-54
2021/08/21 06:11:30;;;;;;;3.87;1.10;;;;;;;19.21;63.44;99548.74;1710275;82;21773;-53
2021/08/21 06:13:56;;;;;;;1.85;1.22;;;;;;;19.23;63.13;99546.72;1711656;81;21234;-52
2021/08/21 06:16:23;;;;;;;2.33;1.37;;;;;;;19.26;63.05;99547.83;1708623;82;21548;-52
2021/08/21 06:18:49;;;;;;;4.22;1.27;;;;;;;19.30;63.23;99550.67;1709508;82;21531;-52
2021/08/21 06:21:15;;;;;;;2.08;1.40;;;;;;;19.35;63.17;99553.85;1707107;82;21034;-51
2021/08/21 06:23:42;;;;;;;3.35;1.50;;;;;;;19.41;63.04;99550.58;1713858;82;21230;-52
2021/08/21 06:26:08;;;;;;;1.70;1.25;;;;;;;19.48;63.11;99549.06;1708311;81;20967;-55
2021/08/21 06:28:34;;;;;;;1.87;1.00;;;;;;;19.56;63.02;99557.44;1709277;81;21149;-53
2021/08/21 06:31:01;;;;;;;1.65;1.00;;;;;;;19.65;62.62;99558.00;1705925;82;21030;-54
2021/08/21 06:33:27;;;;;;;1.92;1.12;;;;;;;19.73;62.17;99550.52;1706321;82;21117;-55
2021/08/21 06:35:54;;;;;;;2.52;1.00;;;;;;;19.80;61.91;99544.86;1708678;82;21289;-54
2021/08/21 06:38:20;;;;;;;2.37;1.00;;;;;;;19.85;61.31;99545.30;1704804;81;22124;-54
2021/08/21 06:40:46;;;;;;;2.95;0.90;;;;;;;19.91;61.23;99547.97;1711083;82;21556;-52
2021/08/21 06:43:12;;;;;;;1.82;1.00;;;;;;;19.95;61.26;99548.94;1712785;82;21058;-54
2021/08/21 06:45:56;;;;;;;1.00;0.90;;;;;;;20.01;60.62;99546.14;1722965;82;21006;-53
2021/08/21 06:48:22;;;;;;;1.42;1.20;;;;;;;20.06;60.57;99549.84;1720944;80;21224;-53
2021/08/21 06:50:48;;;;;;;1.20;1.10;;;;;;;20.10;60.65;99545.31;1722892;82;21041;-54
2021/08/21 06:53:15;;;;;;;1.92;1.20;;;;;;;20.15;60.37;99550.38;1722431;82;21105;-51
2021/08/21 06:55:42;;;;;;;1.22;1.10;;;;;;;20.19;59.92;99540.38;1721288;82;21105;-51
2021/08/21 06:58:09;;;;;;;1.37;1.27;;;;;;;20.22;60.01;99541.48;1724364;80;21618;-52
2021/08/21 07:00:36;;;;;;;2.65;1.10;;;;;;;20.27;60.09;99547.88;1725175;80;21133;-50
2021/08/21 07:03:03;;;;;;;1.27;1.10;;;;;;;20.32;60.08;99548.34;1723750;82;21797;-51
2021/08/21 07:05:29;;;;;;;2.83;1.02;;;;;;;20.38;60.17;99547.30;1719795;81;21053;-52
2021/08/21 07:07:57;;;;;;;1.00;0.90;;;;;;;20.46;59.67;99551.20;1722779;80;21038;-53
2021/08/21 07:10:23;;;;;;;3.02;1.00;;;;;;;20.52;59.07;99550.62;1724192;82;21057;-53
2021/08/21 07:12:49;;;;;;;0.80;0.80;;;;;;;20.59;59.07;99552.64;1719176;82;21152;-54
2021/08/21 07:15:16;;;;;;;1.30;0.90;;;;;;;20.66;58.32;99551.09;1718209;82;21081;-53
2021/08/21 07:17:42;;;;;;;2.42;0.98;;;;;;;20.72;57.95;99545.55;1732171;82;21074;-54
2021/08/21 07:20:10;;;;;;;1.10;0.98;;;;;;;20.78;57.81;99547.19;1684999;83;21132;-53
2021/08/21 07:22:36;;;;;;;1.67;0.70;;;;;;;20.85;57.43;99548.84;1724167;82;21641;-55
2021/08/21 07:25:03;;;;;;;1.42;0.78;;;;;;;20.91;57.33;99545.55;1723835;82;21084;-54
2021/08/21 07:27:30;;;;;;;1.17;0.70;;;;;;;21.00;57.10;99537.84;1724473;82;21203;-53
2021/08/21 07:29:56;;;;;;;2.62;0.72;;;;;;;21.07;56.20;99549.06;1724273;80;21089;-54
2021/08/21 07:32:22;;;;;;;0.75;0.70;;;;;;;21.13;55.74;99546.61;1720874;80;21978;-54
2021/08/21 07:34:48;;;;;;;2.40;0.70;;;;;;;21.20;55.34;99550.15;1725456;80;22500;-53
2021/08/21 07:37:14;;;;;;;1.85;0.65;;;;;;;21.27;55.14;99544.44;1727086;80;22081;-54
2021/08/21 07:39:42;;;;;;;1.98;0.80;;;;;;;21.35;54.53;99547.34;1720966;80;21085;-55
2021/08/21 07:42:09;;;;;;;1.75;0.60;;;;;;;21.41;54.19;99544.87;1720114;81;21593;-53
2021/08/21 07:44:35;;;;;;;1.67;0.70;;;;;;;21.50;53.83;99558.18;1726298;80;21387;-54
2021/08/21 07:47:02;;;;;;;0.70;0.50;;;;;;;21.55;53.32;99555.84;1713148;81;21125;-54
2021/08/21 07:49:28;;;;;;;0.60;0.60;;;;;;;21.61;51.64;99557.12;1709298;81;21102;-53
2021/08/21 07:51:55;;;;;;;0.70;0.60;;;;;;;21.67;51.01;99562.02;1708567;81;21078;-55
2021/08/21 07:54:21;;;;;;;0.70;0.55;;;;;;;21.74;50.18;99561.28;1712358;81;21504;-54
2021/08/21 07:56:47;;;;;;;2.85;0.50;;;;;;;21.78;49.07;99568.17;1708218;81;21109;-55
2021/08/21 07:59:14;;;;;;;1.35;0.60;;;;;;;21.83;47.92;99566.36;1706698;81;21042;-55
2021/08/21 08:01:40;;;;;;;0.90;0.50;;;;;;;21.87;47.88;99556.31;1705530;81;22722;-54
2021/08/21 08:04:06;;;;;;;0.47;0.40;;;;;;;21.93;47.78;99555.38;1709767;81;21475;-53
2021/08/21 08:06:33;;;;;;;0.50;0.50;;;;;;;21.97;47.48;99557.67;1706021;81;21042;-53
2021/08/21 08:09:00;;;;;;;0.82;0.80;;;;;;;22.03;46.85;99563.91;1712796;81;21011;-54
2021/08/21 08:11:26;;;;;;;4.97;0.82;;;;;;;22.10;47.26;99564.20;1710761;81;21109;-52
2021/08/21 08:13:53;;;;;;;1.10;0.70;;;;;;;22.15;46.29;99552.25;1715911;81;21199;-55
2021/08/21 08:16:19;;;;;;;0.80;0.80;;;;;;;22.20;46.02;99559.00;1709145;81;21042;-55
2021/08/21 08:18:46;;;;;;;0.70;0.70;;;;;;;22.26;45.96;99560.28;1707551;81;21101;-55
2021/08/21 08:21:15;;;;;;;1.10;0.60;;;;;;;22.30;46.30;99557.58;1709656;81;21313;-54
2021/08/21 08:23:40;;;;;;;0.60;0.57;;;;;;;22.36;46.38;99563.84;1708265;81;21058;-54
2021/08/21 08:26:07;;;;;;;2.95;0.70;;;;;;;22.43;46.52;99566.32;1706189;81;21704;-55
2021/08/21 08:28:34;;;;;;;0.60;0.60;;;;;;;22.49;46.09;99559.34;1708619;81;22111;-53
2021/08/21 08:31:00;;;;;;;2.67;0.70;;;;;;;22.53;46.24;99556.16;1717284;81;21456;-53
2021/08/21 08:33:26;;;;;;;0.60;0.60;;;;;;;22.59;46.38;99561.02;1708349;81;21791;-55
2021/08/21 08:35:55;;;;;;;2.25;0.80;;;;;;;22.64;46.28;99550.94;1707336;81;22276;-53
2021/08/21 08:38:22;;;;;;;1.25;0.70;;;;;;;22.71;46.61;99553.44;1707829;81;21167;-53
2021/08/21 08:40:49;;;;;;;0.72;0.60;;;;;;;22.77;46.08;99544.60;1711246;81;21603;-54
2021/08/21 08:43:17;;;;;;;0.93;0.70;;;;;;;22.80;46.33;99552.50;1710145;81;21070;-55
2021/08/21 08:45:44;;;;;;;3.08;0.53;;;;;;;22.89;45.96;99550.19;1712303;81;21125;-55
2021/08/21 08:48:13;;;;;;;1.20;0.60;;;;;;;22.95;44.60;99549.59;1725769;80;21578;-52
2021/08/21 08:50:39;;;;;;;3.20;0.80;;;;;;;23.00;44.47;99547.72;1703796;80;21133;-55
2021/08/21 08:53:05;;;;;;;0.98;0.72;;;;;;;23.06;44.33;99551.20;1722951;80;21062;-54
2021/08/21 08:55:32;;;;;;;2.00;0.65;;;;;;;23.12;44.95;99546.47;1721427;80;21042;-54
2021/08/21 08:57:59;;;;;;;0.70;0.70;;;;;;;23.17;44.49;99545.47;1733107;80;21061;-54
2021/08/21 09:00:27;;;;;;;1.82;0.80;;;;;;;23.23;44.50;99542.08;1726267;80;21554;-54
2021/08/21 09:02:57;;;;;;;1.00;0.70;;;;;;;23.29;44.17;99544.21;1731664;80;22190;-54
2021/08/21 09:05:27;;;;;;;0.80;0.60;;;;;;;23.27;43.79;99546.75;1721663;80;21148;-56
2021/08/21 09:07:57;;;;;;;1.25;0.60;;;;;;;23.25;43.31;99553.77;1727202;80;21073;-54
2021/08/21 09:10:29;;;;;;;1.75;0.50;;;;;;;23.20;42.90;99540.19;1725408;80;20938;-54
2021/08/21 09:13:12;;;;;;;2.25;0.70;;;;;;;23.21;43.05;99544.15;1734588;80;21057;-56
2021/08/21 09:15:41;;;;;;;5.20;0.60;;;;;;;23.25;42.74;99537.30;1663863;83;21156;-55
2021/08/21 09:18:17;;;;;;;0.98;0.57;;;;;;;23.29;41.86;99539.23;1725624;80;21291;-54
2021/08/21 09:20:54;;;;;;;1.30;0.60;;;;;;;23.31;41.80;99544.02;1721309;80;21113;-56
2021/08/21 09:23:36;;;;;;;1.00;0.60;;;;;;;23.32;41.48;99545.24;1733772;80;21123;-55
2021/08/21 09:26:24;;;;;;;1.42;0.70;;;;;;;23.32;41.72;99532.88;1718916;80;21551;-55
2021/08/21 09:28:50;;;;;;;1.00;0.50;;;;;;;23.38;41.23;99524.53;1725891;80;21210;-53
2021/08/21 09:31:20;;;;;;;2.45;0.50;;;;;;;23.37;41.77;99530.54;1728866;80;21064;-54
2021/08/21 09:34:02;;;;;;;2.17;0.50;;;;;;;23.38;41.97;99529.52;1722597;80;20981;-55
2021/08/21 09:36:36;;;;;;;1.77;0.40;;;;;;;23.37;41.66;99537.41;1725239;80;20935;-54
2021/08/21 09:39:05;;;;;;;1.67;0.50;;;;;;;23.35;41.86;99538.06;1729127;80;20915;-55
2021/08/21 09:41:52;;;;;;;0.75;0.60;;;;;;;23.38;41.88;99535.52;1727765;80;21114;-56
2021/08/21 09:44:34;;;;;;;1.60;0.60;;;;;;;23.41;41.67;99525.56;1712605;80;21817;-53
2021/08/21 09:47:26;;;;;;;3.42;0.60;;;;;;;23.50;42.26;99545.75;1728333;80;20962;-56
2021/08/21 09:50:17;;;;;;;0.80;0.60;;;;;;;23.56;41.41;99537.71;1727382;80;21147;-53
2021/08/21 09:52:42;;;;;;;2.75;0.60;;;;;;;23.62;40.89;99541.21;1722832;80;20954;-54
2021/08/21 09:55:14;;;;;;;0.95;0.50;;;;;;;23.64;40.58;99540.55;1726560;80;21082;-55
2021/08/21 09:57:39;;;;;;;1.52;0.50;;;;;;;23.68;40.98;99544.67;1725233;80;21013;-53
2021/08/21 10:00:06;;;;;;;1.22;0.50;;;;;;;23.76;41.16;99535.61;1708435;82;21471;-56
2021/08/21 10:02:42;;;;;;;1.12;0.60;;;;;;;23.84;41.34;99546.65;1729198;80;20867;-54
2021/08/21 10:05:09;;;;;;;1.10;0.60;;;;;;;23.91;40.92;99538.60;1713232;80;21001;-53
2021/08/21 10:07:39;;;;;;;0.70;0.50;;;;;;;23.96;40.84;99539.00;1731082;80;21740;-54
2021/08/21 10:10:07;;;;;;;0.80;0.50;;;;;;;24.05;40.95;99535.27;1726654;80;20902;-55
2021/08/21 10:12:37;;;;;;;0.50;0.50;;;;;;;24.11;41.23;99535.96;1727690;80;21503;-53
2021/08/21 10:15:05;;;;;;;0.72;0.55;;;;;;;24.20;40.80;99542.36;1730517;80;20954;-54
2021/08/21 10:17:31;;;;;;;0.80;0.57;;;;;;;24.22;39.96;99537.08;1730896;80;21132;-54
2021/08/21 10:19:58;;;;;;;0.88;0.50;;;;;;;24.24;39.77;99541.91;1723508;80;22776;-54
2021/08/21 10:22:28;;;;;;;0.90;0.60;;;;;;;24.26;39.84;99537.59;1724683;80;21292;-55
2021/08/21 10:24:54;;;;;;;0.78;0.60;;;;;;;24.26;39.74;99542.58;1727520;80;21049;-54
2021/08/21 10:27:34;;;;;;;2.15;0.50;;;;;;;24.26;39.16;99541.20;1735138;80;21166;-54
2021/08/21 10:30:13;;;;;;;0.82;0.57;;;;;;;24.26;39.07;99538.97;1725327;80;21053;-54
2021/08/21 10:32:44;;;;;;;0.68;0.60;;;;;;;24.27;38.96;99540.70;1722262;80;21135;-54
2021/08/21 10:35:13;;;;;;;0.80;0.60;;;;;;;24.30;38.98;99536.25;1743500;80;21247;-56
2021/08/21 10:37:45;;;;;;;1.02;0.55;;;;;;;24.33;39.03;99540.05;1724311;80;20950;-55
2021/08/21 10:40:33;;;;;;;0.53;0.53;;;;;;;24.38;40.22;99529.40;1724673;80;21132;-54
2021/08/21 10:43:01;;;;;;;1.20;0.60;;;;;;;24.44;39.66;99532.34;1726572;80;21120;-54
2021/08/21 10:45:51;;;;;;;0.72;0.50;;;;;;;24.46;38.59;99530.80;1725053;80;21089;-53
2021/08/21 10:48:28;;;;;;;0.72;0.60;;;;;;;24.44;38.53;99530.96;1723300;80;21101;-52
2021/08/21 10:50:54;;;;;;;1.15;0.50;;;;;;;24.44;38.24;99532.34;1723777;80;21317;-55
2021/08/21 10:53:26;;;;;;;0.72;0.60;;;;;;;24.44;38.39;99536.97;1736411;80;21649;-55
2021/08/21 10:55:52;;;;;;;6.05;0.80;;;;;;;24.46;38.93;99530.28;1722337;80;21077;-53
2021/08/21 10:58:22;;;;;;;0.90;0.50;;;;;;;24.50;37.77;99533.54;1720513;80;21154;-55
2021/08/21 11:01:03;;;;;;;0.95;0.57;;;;;;;24.49;37.96;99526.34;1730103;80;21353;-53
2021/08/21 11:03:35;;;;;;;1.98;0.53;;;;;;;24.53;38.26;99524.96;1725064;80;21365;-53
2021/08/21 11:06:05;;;;;;;0.50;0.45;;;;;;;24.57;38.47;99520.00;1724197;80;21073;-53
2021/08/21 11:08:41;;;;;;;2.35;0.70;;;;;;;24.58;38.09;99515.70;1723545;80;21045;-55
2021/08/21 11:11:18;;;;;;;0.75;0.50;;;;;;;24.59;38.27;99514.65;1726759;80;21165;-55
2021/08/21 11:14:07;;;;;;;0.65;0.50;;;;;;;24.62;38.49;99514.83;1719938;80;21037;-54
2021/08/21 11:16:55;;;;;;;0.80;0.57;;;;;;;24.64;38.70;99512.27;1725455;80;20902;-55
2021/08/21 11:19:31;;;;;;;1.10;0.53;;;;;;;24.68;38.56;99515.02;1725527;80;21061;-52
2021/08/21 11:22:14;;;;;;;0.85;0.60;;;;;;;24.73;38.09;99516.76;1722001;80;22424;-54
2021/08/21 11:25:00;;;;;;;2.02;0.60;;;;;;;24.77;37.98;99515.89;1719647;80;21113;-54
2021/08/21 11:27:31;;;;;;;0.60;0.50;;;;;;;24.76;37.49;99501.26;1719679;80;21038;-53
2021/08/21 11:30:11;;;;;;;0.68;0.55;;;;;;;24.74;37.25;99504.72;1732556;80;21124;-51
2021/08/21 11:33:01;;;;;;;0.70;0.50;;;;;;;24.73;37.57;99503.51;1732582;80;21405;-54
2021/08/21 11:35:33;;;;;;;1.00;0.60;;;;;;;24.76;37.76;99501.77;1734003;80;21101;-54
2021/08/21 11:38:04;;;;;;;1.95;0.50;;;;;;;24.80;37.90;99502.66;1723642;80;22420;-55
2021/08/21 11:40:47;;;;;;;0.40;0.40;;;;;;;24.85;38.36;99502.98;1721400;80;21049;-56
2021/08/21 11:43:24;;;;;;;0.53;0.42;;;;;;;24.92;37.60;99504.60;1725156;80;21259;-53